.
WxDataArchive / Data Records for 2013-07-05
2013-07-04 July 2013 2013-07-06

Data Records for Friday, 05 July 2013

Time	Temp	Chill	HIndex	Humid	Dewpt	 Wind 	HiWind	WindDir	Rain 	Barom 
-----	----	-----	------	-----	-----	------	------	-------	-----	----- 
00:00	71.6	71.6	71.6	87	67.5	0	0	---	0.00	30.062 
00:05	71.6	71.6	71.6	87	67.5	0	0	---	0.00	30.062 
00:10	71.5	71.5	71.5	87	67.4	0	0	---	0.00	30.062 
00:15	71.5	71.5	71.5	87	67.4	0	0	---	0.00	30.064 
00:20	71.3	71.3	71.3	88	67.6	0	1	90	0.00	30.064 
00:25	71.3	71.3	71.3	88	67.6	0	1	90	0.00	30.064 
00:30	71.1	71.1	71.1	88	67.4	0	1	90	0.00	30.058 
00:35	70.9	70.9	70.9	88	67.2	0	0	---	0.00	30.058 
00:40	70.9	70.9	70.9	88	67.2	0	1	90	0.00	30.058 
00:45	70.8	70.8	70.8	88	67.1	0	1	90	0.00	30.058 
00:50	70.8	70.8	70.8	88	67.1	0	1	90	0.00	30.058 
00:55	70.8	70.8	70.8	88	67.1	0	0	---	0.00	30.058 
01:00	70.6	70.6	70.6	88	66.9	0	0	---	0.00	30.060 
01:05	70.6	70.6	70.6	88	66.9	0	1	90	0.00	30.060 
01:10	70.6	70.6	70.6	88	66.9	0	0	---	0.00	30.060 
01:15	70.4	70.4	70.4	88	66.7	0	0	---	0.00	30.058 
01:20	70.4	70.4	70.4	88	66.7	0	0	---	0.00	30.058 
01:25	70.4	70.4	70.4	88	66.7	0	0	---	0.00	30.058 
01:30	70.3	70.3	70.3	88	66.6	0	0	---	0.00	30.057 
01:35	70.3	70.3	70.3	88	66.6	0	0	---	0.00	30.057 
01:40	70.3	70.3	70.3	88	66.6	0	0	---	0.00	30.057 
01:45	70.3	70.3	70.3	88	66.6	0	0	---	0.00	30.057 
01:50	70.3	70.3	70.3	88	66.6	0	0	---	0.00	30.057 
01:55	70.1	70.1	70.1	88	66.4	0	0	---	0.00	30.057 
02:00	70.1	70.1	70.1	88	66.4	0	0	---	0.00	30.058 
02:05	70.1	70.1	70.1	88	66.4	0	0	---	0.00	30.058 
02:10	70.1	70.1	70.1	88	66.4	0	0	---	0.00	30.058 
02:15	70.1	70.1	70.1	88	66.4	0	1	90	0.00	30.058 
02:20	70.1	70.1	70.1	88	66.4	0	1	90	0.00	30.058 
02:25	70.1	70.1	70.1	88	66.4	0	1	90	0.00	30.058 
02:30	70.1	70.1	70.1	89	66.7	0	1	90	0.00	30.057 
02:35	69.9	69.9	69.9	89	66.5	0	1	90	0.00	30.057 
02:40	69.9	69.9	69.9	89	66.5	0	0	---	0.00	30.057 
02:45	69.9	69.9	69.9	90	66.8	0	0	---	0.00	30.052 
02:50	69.9	69.9	69.9	90	66.8	0	2	90	0.00	30.052 
02:55	69.8	69.8	69.8	90	66.7	0	3	90	0.00	30.052 
03:00	69.6	69.6	69.6	90	66.5	0	1	90	0.00	30.042 
03:05	69.4	69.4	69.4	90	66.3	1	3	90	0.00	30.042 
03:10	69.3	69.3	69.3	91	66.6	0	1	90	0.00	30.042 
03:15	69.1	69.1	69.1	91	66.4	0	1	90	0.00	30.048 
03:20	69.1	69.1	69.1	91	66.4	0	0	---	0.00	30.048 
03:25	69.1	69.1	69.1	91	66.4	0	1	90	0.00	30.048 
03:30	69.1	69.1	69.1	91	66.4	0	0	---	0.00	30.052 
03:35	69.1	69.1	69.1	91	66.4	0	0	---	0.00	30.052 
03:40	68.9	68.9	68.9	91	66.2	0	0	---	0.00	30.052 
03:45	68.9	68.9	68.9	91	66.2	0	0	---	0.00	30.045 
03:50	68.9	68.9	68.9	91	66.2	0	0	---	0.00	30.045 
03:55	68.9	68.9	68.9	92	66.5	0	0	---	0.00	30.045 
04:00	68.8	68.8	68.8	92	66.4	0	0	---	0.00	30.045 
04:05	68.8	68.8	68.8	92	66.4	0	0	---	0.00	30.045 
04:10	68.6	68.6	68.6	92	66.2	0	0	---	0.00	30.045 
04:15	68.6	68.6	68.6	92	66.2	0	0	---	0.00	30.043 
04:20	68.6	68.6	68.6	92	66.2	0	0	---	0.00	30.043 
04:25	68.4	68.4	68.4	92	66.0	0	0	---	0.00	30.043 
04:30	68.4	68.4	68.4	92	66.0	0	0	---	0.00	30.048 
04:35	68.4	68.4	68.4	92	66.0	0	0	---	0.00	30.048 
04:40	68.4	68.4	68.4	92	66.0	0	0	---	0.00	30.048 
04:45	68.3	68.3	68.3	92	65.9	0	0	---	0.00	30.046 
04:50	68.3	68.3	68.3	93	66.2	0	0	---	0.00	30.046 
04:55	68.3	68.3	68.3	93	66.2	0	0	---	0.00	30.046 
05:00	68.3	68.3	68.3	93	66.2	0	0	---	0.00	30.044 
05:05	68.3	68.3	68.3	93	66.2	0	0	---	0.00	30.044 
05:10	68.1	68.1	68.1	93	66.0	0	0	---	0.00	30.044 
05:15	68.1	68.1	68.1	93	66.0	0	0	---	0.00	30.046 
05:20	68.1	68.1	68.1	93	66.0	0	0	---	0.00	30.046 
05:25	68.1	68.1	68.1	93	66.0	0	0	---	0.00	30.046 
05:30	68.1	68.1	68.1	93	66.0	0	0	---	0.00	30.051 
05:35	68.1	68.1	68.1	93	66.0	0	0	---	0.00	30.051 
05:40	68.1	68.1	68.1	93	66.0	0	0	---	0.00	30.051 
05:45	67.9	67.9	67.9	93	65.8	0	0	---	0.00	30.044 
05:50	67.8	67.8	67.8	93	65.7	0	0	---	0.00	30.044 
05:55	67.8	67.8	67.8	93	65.7	0	0	---	0.00	30.044 
06:00	67.6	67.6	67.6	93	65.5	0	0	---	0.00	30.042 
06:05	67.4	67.4	67.4	93	65.3	0	0	---	0.00	30.042 
06:10	67.4	67.4	67.4	93	65.3	0	0	---	0.00	30.042 
06:15	67.3	67.3	67.3	93	65.2	0	0	---	0.00	30.046 
06:20	67.3	67.3	67.3	93	65.2	0	0	---	0.00	30.046 
06:25	67.1	67.1	67.1	93	65.0	0	0	---	0.00	30.046 
06:30	67.1	67.1	67.1	93	65.0	0	0	---	0.00	30.047 
06:35	66.9	66.9	66.9	94	65.1	0	0	---	0.00	30.047 
06:40	66.9	66.9	66.9	94	65.1	0	0	---	0.00	30.047 
06:45	66.9	66.9	66.9	94	65.1	0	0	---	0.00	30.050 
06:50	66.9	66.9	66.9	94	65.1	0	0	---	0.00	30.050 
06:55	67.1	67.1	67.1	94	65.3	0	0	---	0.00	30.050 
07:00	67.1	67.1	67.1	94	65.3	0	0	---	0.00	30.061 
07:05	67.1	67.1	67.1	94	65.3	0	0	---	0.00	30.061 
07:10	67.1	67.1	67.1	94	65.3	0	0	---	0.00	30.061 
07:15	67.1	67.1	67.1	94	65.3	0	0	---	0.00	30.062 
07:20	67.1	67.1	67.1	94	65.3	0	0	---	0.00	30.062 
07:25	67.3	67.3	67.3	95	65.8	0	0	---	0.00	30.062 
07:30	67.4	67.4	67.4	95	65.9	0	0	---	0.00	30.069 
07:35	67.6	67.6	67.6	95	66.1	0	0	---	0.00	30.069 
07:40	67.8	67.8	67.8	95	66.3	0	0	---	0.00	30.069 
07:45	67.9	67.9	67.9	95	66.4	0	0	---	0.00	30.075 
07:50	68.1	68.1	68.1	95	66.6	0	0	---	0.00	30.075 
07:55	68.3	68.3	68.3	95	66.8	0	0	---	0.00	30.075 
08:00	68.4	68.4	68.4	95	66.9	0	0	---	0.00	30.078 
08:05	68.6	68.6	68.6	95	67.1	0	1	90	0.00	30.078 
08:10	68.8	68.8	68.8	94	67.0	0	1	90	0.00	30.078 
08:15	68.9	68.9	68.9	94	67.1	0	1	90	0.00	30.083 
08:20	69.1	69.1	69.1	94	67.3	0	0	---	0.00	30.083 
08:25	69.3	69.3	69.3	94	67.5	0	0	---	0.00	30.083 
08:30	69.4	69.4	69.4	94	67.6	0	1	90	0.00	30.083 
08:35	69.4	69.4	69.4	94	67.6	0	0	---	0.00	30.083 
08:40	69.6	69.6	69.6	93	67.5	0	1	90	0.00	30.083 
08:45	69.6	69.6	69.6	93	67.5	0	0	---	0.00	30.089 
08:50	69.9	69.9	69.9	93	67.8	0	0	---	0.00	30.089 
08:55	69.9	69.9	69.9	93	67.8	0	0	---	0.00	30.089 
09:00	70.3	70.3	70.3	92	67.9	0	0	---	0.00	30.091 
09:05	70.4	70.4	70.4	92	68.0	0	1	90	0.00	30.091 
09:10	70.8	70.8	70.8	92	68.4	0	2	90	0.00	30.091 
09:15	70.9	70.9	70.9	91	68.1	0	1	90	0.00	30.092 
09:20	71.3	71.3	71.3	90	68.2	0	2	90	0.00	30.092 
09:25	71.1	71.1	71.1	88	67.4	0	2	90	0.00	30.092 
09:30	71.3	71.3	71.3	88	67.6	0	2	90	0.00	30.093 
09:35	71.5	71.5	71.5	88	67.7	0	1	90	0.00	30.093 
09:40	71.6	71.6	71.6	87	67.5	0	1	90	0.00	30.093 
09:45	71.8	71.8	71.8	86	67.4	0	2	90	0.00	30.093 
09:50	72.0	72.0	72.0	85	67.2	0	2	90	0.00	30.093 
09:55	72.1	72.1	72.1	85	67.3	0	1	90	0.00	30.093 
10:00	72.3	72.3	72.3	84	67.2	0	2	90	0.00	30.093 
10:05	72.3	72.3	72.3	84	67.2	0	1	90	0.00	30.093 
10:10	72.7	72.7	72.7	84	67.6	0	0	---	0.00	30.093 
10:15	72.8	72.8	72.8	83	67.3	0	2	90	0.00	30.092 
10:20	73.2	73.2	73.2	83	67.7	0	0	---	0.00	30.092 
10:25	73.5	73.5	73.5	83	68.0	0	1	90	0.00	30.092 
10:30	74.0	74.0	74.0	81	67.8	0	1	90	0.00	30.093 
10:35	74.4	74.4	74.4	80	67.8	0	2	90	0.00	30.093 
10:40	74.9	74.9	74.9	79	67.9	1	2	90	0.00	30.093 
10:45	75.4	75.4	76.4	77	67.7	0	2	90	0.00	30.090 
10:50	75.8	75.8	76.9	78	68.4	0	1	90	0.00	30.090 
10:55	76.0	76.0	77.3	76	67.9	0	2	90	0.00	30.090 
11:00	76.0	76.0	77.2	77	68.3	0	2	90	0.00	30.090 
11:05	76.5	76.5	77.9	77	68.7	1	3	90	0.00	30.090 
11:10	77.2	77.2	79.0	75	68.6	0	3	90	0.00	30.090 
11:15	77.7	77.7	79.6	69	66.7	0	2	90	0.00	30.088 
11:20	77.4	77.4	79.3	71	67.2	0	2	90	0.00	30.088 
11:25	76.8	76.8	78.5	72	67.1	0	1	90	0.00	30.088 
11:30	76.7	76.7	78.3	73	67.4	0	1	90	0.00	30.090 
11:35	76.8	76.8	78.5	73	67.5	0	2	90	0.00	30.090 
11:40	77.7	77.7	79.7	74	68.7	0	2	90	0.00	30.090 
11:45	78.1	78.1	80.1	69	67.1	0	2	90	0.00	30.086 
11:50	78.8	78.8	81.1	69	67.7	0	1	90	0.00	30.086 
11:55	78.8	78.8	81.1	69	67.7	0	1	90	0.00	30.086 
12:00	78.6	78.6	80.8	69	67.6	0	1	90	0.00	30.087 
12:05	78.1	78.1	80.1	69	67.1	0	1	90	0.00	30.087 
12:10	77.7	77.7	79.6	70	67.1	0	2	90	0.00	30.087 
12:15	77.6	77.6	79.5	70	67.0	0	2	90	0.00	30.088 
12:20	77.4	77.4	79.3	70	66.8	0	3	90	0.00	30.088 
12:25	77.2	77.2	79.0	71	67.0	1	2	90	0.00	30.088 
12:30	77.2	77.2	79.0	72	67.5	0	2	90	0.00	30.091 
12:35	77.2	77.2	79.0	72	67.5	0	2	90	0.00	30.091 
12:40	77.4	77.4	79.3	73	68.0	0	3	90	0.00	30.091 
12:45	77.4	77.4	79.3	72	67.6	0	2	90	0.00	30.089 
12:50	77.4	77.4	79.3	71	67.2	0	2	90	0.00	30.089 
12:55	77.4	77.4	79.3	70	66.8	0	2	90	0.00	30.089 
13:00	77.4	77.4	79.3	72	67.6	0	1	90	0.00	30.088 
13:05	77.6	77.6	79.5	72	67.8	0	0	---	0.00	30.088 
13:10	77.7	77.7	79.6	70	67.1	0	2	90	0.00	30.088 
13:15	77.9	77.9	79.9	70	67.3	1	2	90	0.00	30.085 
13:20	78.1	78.1	80.1	69	67.1	0	1	90	0.00	30.085 
13:25	78.3	78.3	80.4	70	67.7	0	2	90	0.00	30.085 
13:30	78.8	78.8	81.0	68	67.3	1	2	90	0.00	30.082 
13:35	79.4	79.4	81.9	69	68.3	1	2	90	0.00	30.082 
13:40	79.9	79.9	82.2	65	67.1	1	2	90	0.00	30.082 
13:45	80.3	80.3	82.7	64	67.0	1	4	90	0.00	30.077 
13:50	80.9	80.9	83.7	65	68.0	1	3	112	0.00	30.077 
13:55	81.4	81.4	84.6	66	68.9	1	3	112	0.00	30.077 
14:00	82.0	82.0	84.6	61	67.2	1	4	112	0.00	30.072 
14:05	82.0	82.0	84.6	61	67.2	1	3	112	0.00	30.072 
14:10	81.1	81.1	83.2	60	65.9	1	3	112	0.00	30.072 
14:15	80.3	80.3	82.8	65	67.4	1	3	112	0.00	30.075 
14:20	79.6	79.6	82.1	68	68.1	2	5	112	0.00	30.075 
14:25	79.4	79.4	81.7	67	67.5	0	2	112	0.00	30.075 
14:30	79.2	79.2	81.3	65	66.4	0	2	112	0.00	30.074 
14:35	79.0	79.0	81.0	64	65.8	1	3	112	0.00	30.074 
14:40	79.0	79.0	81.0	64	65.8	1	3	112	0.00	30.074 
14:45	79.0	79.0	81.0	64	65.8	0	2	112	0.00	30.072 
14:50	79.0	79.0	81.0	65	66.2	0	2	112	0.00	30.072 
14:55	79.0	79.0	80.9	63	65.3	0	1	112	0.00	30.072 
15:00	79.2	79.2	81.2	64	65.9	0	1	112	0.00	30.071 
15:05	79.6	79.6	81.5	62	65.4	0	2	112	0.00	30.071 
15:10	79.8	79.8	81.8	62	65.6	1	3	112	0.00	30.071 
15:15	80.3	80.3	82.1	59	64.6	0	2	112	0.00	30.065 
15:20	80.9	80.9	83.1	61	66.2	0	2	112	0.00	30.065 
15:25	81.2	81.2	83.2	59	65.5	0	1	112	0.00	30.065 
15:30	81.8	81.8	84.0	59	66.0	0	2	112	0.00	30.065 
15:35	82.2	82.2	84.2	57	65.4	1	3	112	0.00	30.065 
15:40	82.0	82.0	83.9	57	65.2	0	2	112	0.00	30.065 
15:45	82.0	82.0	83.9	57	65.2	0	2	112	0.00	30.057 
15:50	82.0	82.0	84.1	58	65.7	0	1	112	0.00	30.057 
15:55	81.6	81.6	83.5	58	65.4	1	4	112	0.00	30.057 
16:00	81.1	81.1	82.9	58	64.9	1	3	112	0.00	30.055 
16:05	80.9	80.9	82.7	58	64.7	0	2	112	0.00	30.055 
16:10	80.5	80.5	82.2	58	64.3	0	3	112	0.00	30.055 
16:15	80.5	80.5	82.4	60	65.3	0	3	112	0.00	30.050 
16:20	80.9	80.9	82.7	58	64.7	0	3	112	0.00	30.050 
16:25	81.2	81.2	83.0	58	65.0	0	2	112	0.00	30.050 
16:30	81.6	81.6	83.4	57	64.9	0	2	112	0.00	30.043 
16:35	81.4	81.4	82.7	54	63.1	0	1	112	0.00	30.043 
16:40	81.2	81.2	82.6	55	63.5	0	1	112	0.00	30.043 
16:45	81.6	81.6	83.7	59	65.9	0	2	112	0.00	30.046 
16:50	82.2	82.2	84.2	57	65.4	0	2	112	0.00	30.046 
16:55	82.4	82.4	84.4	57	65.6	1	2	112	0.00	30.046 
17:00	82.6	82.6	84.5	56	65.3	2	5	112	0.00	30.047 
17:05	82.8	82.8	85.0	57	66.0	2	6	90	0.00	30.047 
17:10	82.8	82.8	85.2	58	66.5	1	4	90	0.00	30.047 
17:15	82.6	82.6	84.5	56	65.3	2	4	90	0.00	30.048 
17:20	82.4	82.4	84.6	58	66.1	0	3	90	0.00	30.048 
17:25	82.4	82.4	84.2	56	65.1	1	4	90	0.00	30.048 
17:30	82.0	82.0	83.9	57	65.2	0	3	0	0.00	30.044 
17:35	81.4	81.4	83.6	60	66.2	0	2	338	0.00	30.044 
17:40	81.2	81.2	83.0	58	65.0	1	2	338	0.00	30.044 
17:45	81.2	81.2	83.2	59	65.5	0	2	90	0.00	30.054 
17:50	81.2	81.2	83.2	59	65.5	0	2	90	0.00	30.054 
17:55	81.4	81.4	83.3	58	65.2	1	3	90	0.00	30.054 
18:00	81.4	81.4	83.1	57	64.7	1	3	338	0.00	30.045 
18:05	81.4	81.4	83.4	59	65.7	0	2	68	0.00	30.045 
18:10	81.4	81.4	83.1	57	64.7	0	2	68	0.00	30.045 
18:15	81.2	81.2	83.0	58	65.0	0	3	68	0.00	30.041 
18:20	81.4	81.4	83.4	59	65.7	0	2	68	0.00	30.041 
18:25	81.2	81.2	83.0	58	65.0	0	2	68	0.00	30.041 
18:30	81.2	81.2	83.2	59	65.5	0	2	68	0.00	30.031 
18:35	81.1	81.1	82.9	58	64.9	0	2	68	0.00	30.031 
18:40	80.7	80.7	82.3	57	64.0	0	2	68	0.00	30.031 
18:45	80.7	80.7	82.4	58	64.5	0	2	68	0.00	30.029 
18:50	80.5	80.5	82.3	59	64.8	0	1	45	0.00	30.029 
18:55	80.3	80.3	81.9	58	64.2	1	2	45	0.00	30.029 
19:00	80.3	80.3	82.1	59	64.6	0	3	45	0.00	30.030 
19:05	80.1	80.1	81.9	60	64.9	0	1	45	0.00	30.030 
19:10	80.1	80.1	82.0	61	65.4	0	2	45	0.00	30.030 
19:15	79.9	79.9	81.7	60	64.7	0	1	45	0.00	30.028 
19:20	79.8	79.8	81.7	61	65.1	0	2	45	0.00	30.028 
19:25	79.8	79.8	81.7	61	65.1	0	3	45	0.00	30.028 
19:30	79.8	79.8	81.7	61	65.1	0	1	45	0.00	30.027 
19:35	79.6	79.6	81.5	62	65.4	0	2	45	0.00	30.027 
19:40	79.4	79.4	81.3	62	65.2	0	1	45	0.00	30.027 
19:45	79.2	79.2	81.0	61	64.6	0	2	45	0.00	30.034 
19:50	79.0	79.0	80.9	63	65.3	0	1	45	0.00	30.034 
19:55	78.8	78.8	80.7	63	65.1	0	2	45	0.00	30.034 
20:00	78.6	78.6	80.5	64	65.4	0	1	45	0.00	30.041 
20:05	78.5	78.5	80.4	64	65.3	0	1	45	0.00	30.041 
20:10	78.3	78.3	80.2	64	65.1	0	1	45	0.00	30.041 
20:15	78.1	78.1	80.0	65	65.4	0	0	---	0.00	30.039 
20:20	77.7	77.7	79.5	65	65.0	0	0	---	0.00	30.039 
20:25	77.6	77.6	79.4	66	65.3	0	0	---	0.00	30.039 
20:30	77.4	77.4	79.2	67	65.6	0	1	45	0.00	30.044 
20:35	77.2	77.2	79.0	67	65.4	0	0	---	0.00	30.044 
20:40	77.2	77.2	79.0	68	65.8	0	0	---	0.00	30.044 
20:45	76.8	76.8	78.6	69	65.8	0	0	---	0.00	30.048 
20:50	76.7	76.7	78.4	69	65.7	0	0	---	0.00	30.048 
20:55	76.7	76.7	78.4	70	66.2	0	1	45	0.00	30.048 
21:00	76.5	76.5	78.2	70	66.0	0	0	---	0.00	30.045 
21:05	76.3	76.3	78.0	70	65.8	0	0	---	0.00	30.045 
21:10	76.1	76.1	77.7	71	66.0	0	0	---	0.00	30.045 
21:15	76.0	76.0	77.6	71	65.9	0	0	---	0.00	30.049 
21:20	75.8	75.8	77.4	71	65.7	0	0	---	0.00	30.049 
21:25	75.6	75.6	77.1	72	65.9	0	0	---	0.00	30.049 
21:30	75.4	75.4	76.9	72	65.7	0	0	---	0.00	30.055 
21:35	75.4	75.4	76.8	73	66.1	0	0	---	0.00	30.055 
21:40	75.3	75.3	76.7	73	66.0	0	0	---	0.00	30.055 
21:45	75.1	75.1	76.4	74	66.2	0	0	---	0.00	30.054 
21:50	74.9	74.9	74.9	74	66.0	0	0	---	0.00	30.054 
21:55	74.7	74.7	74.7	75	66.2	0	0	---	0.00	30.054 
22:00	74.6	74.6	74.6	75	66.1	0	0	---	0.00	30.058 
22:05	74.6	74.6	74.6	76	66.5	0	0	---	0.00	30.058 
22:10	74.4	74.4	74.4	76	66.3	0	0	---	0.00	30.058 
22:15	74.4	74.4	74.4	77	66.7	0	0	---	0.00	30.058 
22:20	74.0	74.0	74.0	77	66.3	0	0	---	0.00	30.058 
22:25	73.9	73.9	73.9	78	66.6	0	0	---	0.00	30.058 
22:30	73.7	73.7	73.7	79	66.8	0	0	---	0.00	30.061 
22:35	73.5	73.5	73.5	79	66.6	0	0	---	0.00	30.061 
22:40	73.3	73.3	73.3	79	66.4	0	0	---	0.00	30.061 
22:45	73.2	73.2	73.2	81	67.0	0	0	---	0.00	30.064 
22:50	73.0	73.0	73.0	81	66.8	0	0	---	0.00	30.064 
22:55	72.8	72.8	72.8	81	66.6	0	0	---	0.00	30.064 
23:00	72.7	72.7	72.7	81	66.5	0	0	---	0.00	30.074 
23:05	72.3	72.3	72.3	82	66.5	0	0	---	0.00	30.074 
23:10	72.3	72.3	72.3	83	66.8	0	0	---	0.00	30.074 
23:15	72.1	72.1	72.1	83	66.6	0	0	---	0.00	30.071 
23:20	72.0	72.0	72.0	84	66.9	0	0	---	0.00	30.071 
23:25	71.8	71.8	71.8	84	66.7	0	0	---	0.00	30.071 
23:30	71.6	71.6	71.6	84	66.5	0	0	---	0.00	30.073 
23:35	71.6	71.6	71.6	84	66.5	0	0	---	0.00	30.073 
23:40	71.5	71.5	71.5	85	66.7	0	0	---	0.00	30.073 
23:45	71.3	71.3	71.3	85	66.5	0	0	---	0.00	30.073 
23:50	71.1	71.1	71.1	86	66.7	0	0	---	0.00	30.073 
23:55	71.1	71.1	71.1	86	66.7	0	0	---	0.00	30.073 

CoCoRaHS
IN-AL-39
A2 Web Hosting
Creative Commons License
GoDaddy
search engine by freefind advanced

loaded 2018-11-20 06:53:06 • last modified 2010-11-18 10:43:29
Privacy PolicyDisclaimer
• wx.awcolley.com is powered by PmWiki v.2002016 •
• all content (unless otherwise noted) © 2018 A W Colley